Time;durP1;ratioP1;P1;durP2;ratioP2;P2;SDS_P1;SDS_P2;PMS_P1;PMS_P2;Temp;Humidity;BMP_temperature;BMP_pressure;BME280_temperature;BME280_humidity;BME280_pressure;Samples;Min_cycle;Max_cycle;Signal;HPM_P1;HPM_P2
2022/12/08 00:01:26;;;;;;;6.18;4.10;;;;;;;0.93;100.00;97872.09;4214668;28;20438;-76
2022/12/08 00:03:27;;;;;;;7.22;3.90;;;;;;;0.93;100.00;97880.25;4219495;27;20111;-76
2022/12/08 00:10:05;;;;;;;8.40;4.03;;;;;;;0.99;100.00;97873.47;4219374;28;20498;-76
2022/12/08 00:12:11;;;;;;;8.48;4.70;;;;;;;0.97;100.00;97879.25;4220375;27;20035;-76
2022/12/08 00:14:12;;;;;;;7.32;3.80;;;;;;;1.00;100.00;97866.94;4219051;27;20102;-76
2022/12/08 00:16:12;;;;;;;5.45;3.67;;;;;;;1.01;100.00;97872.03;4219283;27;20539;-76
2022/12/08 00:18:12;;;;;;;8.18;3.88;;;;;;;1.01;100.00;97863.88;4210147;28;20024;-76
2022/12/08 00:20:13;;;;;;;6.82;4.25;;;;;;;1.01;100.00;97863.88;4218001;28;20118;-76
2022/12/08 00:22:14;;;;;;;7.50;4.03;;;;;;;0.96;100.00;97853.16;4216105;27;20028;-76
2022/12/08 00:24:15;;;;;;;6.68;4.10;;;;;;;1.07;100.00;97865.25;4220816;27;20300;-76
2022/12/08 00:26:15;;;;;;;6.53;4.13;;;;;;;1.05;100.00;97861.28;4210341;27;20442;-77
2022/12/08 00:28:16;;;;;;;6.70;3.97;;;;;;;0.99;100.00;97859.84;4219152;28;20027;-77
2022/12/08 00:30:17;;;;;;;8.23;4.45;;;;;;;0.93;100.00;97853.03;4209193;28;20780;-76
2022/12/08 00:32:17;;;;;;;9.13;4.50;;;;;;;0.91;100.00;97857.97;4216671;28;20028;-76
2022/12/08 00:34:17;;;;;;;6.90;4.05;;;;;;;0.91;100.00;97856.09;4218637;27;20110;-76
2022/12/08 00:36:18;;;;;;;6.30;3.75;;;;;;;0.89;100.00;97843.91;4219006;28;20530;-77
2022/12/08 00:38:18;;;;;;;6.05;3.85;;;;;;;0.85;100.00;97838.34;4219205;27;20511;-76
2022/12/08 00:40:18;;;;;;;10.25;3.50;;;;;;;0.89;100.00;97843.91;4210135;28;20028;-76
2022/12/08 00:42:19;;;;;;;7.40;3.80;;;;;;;0.82;100.00;97841.69;4219049;27;20024;-76
2022/12/08 00:44:19;;;;;;;5.35;3.60;;;;;;;0.82;100.00;97844.41;4218622;27;20434;-76
2022/12/08 00:46:19;;;;;;;6.32;3.80;;;;;;;0.79;100.00;97842.38;4217959;28;20035;-77
2022/12/08 00:48:20;;;;;;;7.53;3.53;;;;;;;0.79;100.00;97837.72;4220226;27;20034;-76
2022/12/08 00:50:20;;;;;;;5.32;3.30;;;;;;;0.80;100.00;97835.78;4218963;28;20482;-76
2022/12/08 00:52:20;;;;;;;4.88;3.33;;;;;;;0.80;100.00;97839.31;4213119;28;20039;-77
2022/12/08 00:54:24;;;;;;;6.50;3.78;;;;;;;0.78;100.00;97838.06;4220019;27;20512;-76
2022/12/08 00:56:24;;;;;;;8.10;4.20;;;;;;;0.81;100.00;97840.09;4218658;27;20031;-76
2022/12/08 00:58:25;;;;;;;6.13;3.53;;;;;;;0.81;100.00;97842.81;4218205;27;20085;-76
2022/12/08 01:00:25;;;;;;;9.45;4.63;;;;;;;0.81;100.00;97840.09;4219192;28;20376;-77
2022/12/08 01:02:25;;;;;;;7.00;3.92;;;;;;;0.79;100.00;97832.28;4219737;28;20112;-76
2022/12/08 01:04:26;;;;;;;7.10;3.90;;;;;;;0.80;100.00;97828.41;4219396;27;20067;-76
2022/12/08 01:06:26;;;;;;;9.32;4.18;;;;;;;0.79;100.00;97843.16;4218655;27;20118;-76
2022/12/08 01:08:26;;;;;;;9.38;3.55;;;;;;;0.82;100.00;97837.03;4215612;28;20088;-76
2022/12/08 01:10:26;;;;;;;6.63;4.00;;;;;;;0.80;100.00;97822.97;4218071;28;20052;-76
2022/12/08 01:12:30;;;;;;;5.35;3.58;;;;;;;0.80;100.00;97830.34;4218721;28;20042;-76
2022/12/08 01:14:30;;;;;;;6.80;3.90;;;;;;;0.78;100.00;97829.88;4220136;27;20112;-76
2022/12/08 01:16:33;;;;;;;6.22;4.10;;;;;;;0.81;100.00;97831.94;4218805;27;20035;-76
2022/12/08 01:18:35;;;;;;;11.15;4.30;;;;;;;0.80;100.00;97833.06;4218018;28;20459;-76
2022/12/08 01:20:35;;;;;;;5.95;3.80;;;;;;;0.82;100.00;97834.31;4219609;28;20034;-76
2022/12/08 01:22:35;;;;;;;5.43;3.88;;;;;;;0.85;100.00;97838.34;4217708;28;20040;-76
2022/12/08 01:24:37;;;;;;;5.55;3.92;;;;;;;0.83;100.00;97837.88;4219852;27;20054;-77
2022/12/08 01:26:37;;;;;;;10.85;4.65;;;;;;;0.83;100.00;97841.38;4216869;28;20063;-76
2022/12/08 01:28:38;;;;;;;8.02;4.18;;;;;;;0.83;100.00;97846.03;4215137;27;20261;-76
2022/12/08 01:30:39;;;;;;;8.90;3.97;;;;;;;0.85;100.00;97843.78;4218151;27;20479;-76
2022/12/08 01:32:40;;;;;;;7.75;3.95;;;;;;;0.86;100.00;97848.09;4217448;27;20538;-76
2022/12/08 01:34:40;;;;;;;9.45;5.53;;;;;;;0.90;100.00;97849.03;4219131;28;20374;-77
2022/12/08 01:36:41;;;;;;;8.45;3.97;;;;;;;0.89;100.00;97843.91;4218975;27;20233;-76
2022/12/08 01:38:41;;;;;;;5.45;3.60;;;;;;;0.90;100.00;97848.22;4218636;27;20418;-76
2022/12/08 01:40:42;;;;;;;6.05;4.05;;;;;;;0.90;100.00;97840.03;4217035;28;20035;-77
2022/12/08 01:42:42;;;;;;;7.05;4.22;;;;;;;0.86;100.00;97836.41;4217142;28;20085;-76
2022/12/08 01:44:42;;;;;;;6.45;4.20;;;;;;;0.95;100.00;97832.50;4219837;28;20043;-76
2022/12/08 01:46:46;;;;;;;8.88;5.22;;;;;;;0.94;100.00;97839.06;4216569;28;20048;-76
2022/12/08 01:48:47;;;;;;;8.10;4.38;;;;;;;0.95;100.00;97837.16;4217369;28;20535;-77
2022/12/08 01:50:48;;;;;;;8.30;4.47;;;;;;;0.96;100.00;97833.28;4219963;27;20066;-77
2022/12/08 01:52:55;;;;;;;5.78;4.15;;;;;;;0.96;100.00;97822.41;4214623;28;20035;-76
2022/12/08 01:55:23;;;;;;;6.85;4.40;;;;;;;0.98;100.00;97831.81;4217238;28;20039;-76
2022/12/08 01:57:30;;;;;;;6.28;3.90;;;;;;;0.97;100.00;97830.22;4209247;27;20062;-76
2022/12/08 01:59:33;;;;;;;7.10;4.38;;;;;;;0.97;100.00;97821.25;4219693;28;20055;-76
2022/12/08 02:01:34;;;;;;;6.80;4.40;;;;;;;0.95;100.00;97816.16;4215762;28;20051;-76
2022/12/08 02:03:41;;;;;;;6.20;4.40;;;;;;;0.96;100.00;97825.91;4216671;28;20123;-77
2022/12/08 02:05:42;;;;;;;6.35;4.13;;;;;;;0.96;100.00;97828.63;4212915;28;20155;-76
2022/12/08 02:07:43;;;;;;;7.90;4.07;;;;;;;0.98;100.00;97826.38;4222693;28;20096;-76
2022/12/08 02:09:45;;;;;;;5.90;4.28;;;;;;;1.03;100.00;97828.91;4221937;28;20035;-76
2022/12/08 02:11:45;;;;;;;10.15;4.43;;;;;;;1.03;100.00;97826.19;4220821;28;20071;-76
2022/12/08 02:13:47;;;;;;;7.45;3.75;;;;;;;1.05;100.00;97817.69;4211584;28;20564;-76
2022/12/08 02:16:03;;;;;;;7.57;3.92;;;;;;;1.03;100.00;97818.00;4222097;28;20450;-76
2022/12/08 02:18:35;;;;;;;8.50;4.22;;;;;;;1.04;100.00;97814.16;4220461;27;20052;-76
2022/12/08 02:20:50;;;;;;;5.22;3.85;;;;;;;1.03;100.00;97812.56;4185722;27;20096;-76
2022/12/08 02:23:00;;;;;;;6.18;4.03;;;;;;;1.02;100.00;97818.34;4222016;27;20199;-76
2022/12/08 02:25:21;;;;;;;5.93;3.75;;;;;;;1.00;100.00;97821.41;4221569;27;20036;-76
2022/12/08 02:27:32;;;;;;;6.60;3.95;;;;;;;0.98;100.00;97814.69;4222446;28;20044;-77
2022/12/08 02:30:02;;;;;;;7.22;4.13;;;;;;;0.98;100.00;97812.75;4212385;28;20036;-77
2022/12/08 02:32:05;;;;;;;6.32;3.95;;;;;;;0.99;100.00;97819.00;4150982;28;20480;-77
2022/12/08 02:34:14;;;;;;;6.10;3.92;;;;;;;0.98;100.00;97815.47;4217524;28;20084;-77
2022/12/08 02:36:36;;;;;;;5.18;3.40;;;;;;;1.02;100.00;97812.91;4221813;28;20120;-77
2022/12/08 02:38:42;;;;;;;5.78;4.13;;;;;;;1.02;100.00;97815.63;4211460;28;20051;-76
2022/12/08 02:40:51;;;;;;;7.80;4.20;;;;;;;0.97;100.00;97813.88;4220342;27;20043;-76
2022/12/08 02:43:01;;;;;;;5.60;3.50;;;;;;;0.94;100.00;97816.50;4220937;28;20437;-76
2022/12/08 02:45:12;;;;;;;5.57;3.58;;;;;;;0.90;100.00;97815.53;4222197;27;20335;-77
2022/12/08 02:47:17;;;;;;;4.72;3.45;;;;;;;0.86;100.00;97804.53;4220763;27;20093;-77
2022/12/08 02:49:17;;;;;;;5.53;3.33;;;;;;;0.86;100.00;97807.25;4221452;28;20051;-77
2022/12/08 02:51:18;;;;;;;5.53;3.53;;;;;;;0.82;100.00;97806.28;4221016;27;20509;-77
2022/12/08 02:53:18;;;;;;;5.63;3.53;;;;;;;0.82;100.00;97803.56;4221214;28;20431;-76
2022/12/08 02:55:21;;;;;;;4.43;3.17;;;;;;;0.82;100.00;97801.66;4221325;28;20040;-76
2022/12/08 02:57:22;;;;;;;5.03;3.33;;;;;;;0.83;100.00;97799.75;4221323;27;20043;-77
2022/12/08 03:00:16;;;;;;;5.25;3.45;;;;;;;0.81;100.00;97801.97;4221686;27;20036;-77
2022/12/08 03:02:48;;;;;;;4.80;3.33;;;;;;;0.77;100.00;97798.34;4169480;28;20068;-77
2022/12/08 03:05:13;;;;;;;5.85;3.55;;;;;;;0.75;100.00;97792.44;4204457;28;20412;-77
2022/12/08 03:07:19;;;;;;;5.35;3.50;;;;;;;0.72;100.00;97788.41;4215963;27;20043;-77
2022/12/08 03:09:36;;;;;;;5.15;3.50;;;;;;;0.69;100.00;97780.13;4219495;27;20162;-77
2022/12/08 03:11:46;;;;;;;5.88;3.75;;;;;;;0.69;100.00;97782.84;4220831;27;20043;-77
2022/12/08 03:13:53;;;;;;;5.40;3.47;;;;;;;0.65;100.00;97782.69;4218378;27;20048;-77
2022/12/08 03:15:55;;;;;;;6.40;3.90;;;;;;;0.68;100.00;97783.97;4218114;28;20043;-77
2022/12/08 03:17:57;;;;;;;6.38;3.65;;;;;;;0.64;100.00;97786.53;4216236;28;20044;-76
2022/12/08 03:20:03;;;;;;;5.45;3.63;;;;;;;0.64;100.00;97786.53;4217554;27;20040;-77
2022/12/08 03:22:06;;;;;;;4.93;3.72;;;;;;;0.63;100.00;97773.28;4218106;27;20346;-77
2022/12/08 03:24:09;;;;;;;6.05;3.58;;;;;;;0.65;100.00;97777.25;4218668;27;20066;-76
2022/12/08 03:26:22;;;;;;;6.25;4.35;;;;;;;0.62;100.00;97774.41;4216933;27;20031;-77
2022/12/08 03:28:23;;;;;;;5.88;3.80;;;;;;;0.57;100.00;97776.19;4218729;27;20395;-77
2022/12/08 03:30:23;;;;;;;4.95;3.40;;;;;;;0.55;100.00;97775.72;4220021;28;20047;-77
2022/12/08 03:32:36;;;;;;;5.72;3.70;;;;;;;0.56;100.00;97771.88;4208812;28;20449;-77
2022/12/08 03:34:39;;;;;;;7.28;4.55;;;;;;;0.56;100.00;97768.34;4210934;28;20706;-77
2022/12/08 03:36:39;;;;;;;5.53;3.70;;;;;;;0.61;100.00;97764.66;4216232;27;20074;-77
2022/12/08 03:38:42;;;;;;;5.88;3.75;;;;;;;0.61;100.00;97761.91;4214407;28;20047;-77
2022/12/08 03:41:17;;;;;;;7.13;4.10;;;;;;;0.58;100.00;97760.66;4218789;27;20366;-76
2022/12/08 03:43:04;;;;;;;7.00;3.53;;;;;;;0.58;100.00;97757.94;4217422;28;20047;-77
2022/12/08 03:45:05;;;;;;;6.22;3.75;;;;;;;0.61;100.00;97761.91;4216469;28;20050;-77
2022/12/08 03:47:05;;;;;;;6.60;4.25;;;;;;;0.63;100.00;97771.34;4218275;27;20427;-76
2022/12/08 03:49:06;;;;;;;5.50;3.78;;;;;;;0.63;100.00;97767.81;4218866;27;20062;-76
2022/12/08 03:51:06;;;;;;;5.72;3.65;;;;;;;0.62;100.00;97758.88;4216845;27;20242;-76
2022/12/08 03:53:06;;;;;;;6.57;3.70;;;;;;;0.63;100.00;97754.22;4218640;28;20046;-76
2022/12/08 03:55:07;;;;;;;7.10;4.13;;;;;;;0.66;100.00;97748.91;4217506;28;20065;-76
2022/12/08 03:57:08;;;;;;;5.22;3.53;;;;;;;0.68;100.00;97749.38;4211851;27;20154;-77
2022/12/08 03:59:09;;;;;;;7.53;3.97;;;;;;;0.69;100.00;97750.97;4209133;27;20462;-76
2022/12/08 04:01:11;;;;;;;4.60;3.67;;;;;;;0.67;100.00;97749.72;4207488;27;20058;-76
2022/12/08 04:03:11;;;;;;;9.20;3.90;;;;;;;0.71;100.00;97762.31;4207296;27;20048;-76
2022/12/08 04:05:11;;;;;;;6.57;3.78;;;;;;;0.69;100.00;97752.91;4209089;28;20096;-76
2022/12/08 04:07:12;;;;;;;8.95;3.97;;;;;;;0.68;100.00;97754.03;4209687;27;20048;-77
2022/12/08 04:09:12;;;;;;;6.93;4.30;;;;;;;0.66;100.00;97754.34;4208103;28;20654;-76
2022/12/08 04:11:12;;;;;;;5.53;3.83;;;;;;;0.66;100.00;97754.34;4211293;28;20153;-77
2022/12/08 04:13:13;;;;;;;6.15;4.10;;;;;;;0.64;100.00;97745.72;4208528;27;20112;-76
2022/12/08 04:15:13;;;;;;;6.35;3.92;;;;;;;0.63;100.00;97746.03;4210583;28;20043;-77
2022/12/08 04:17:13;;;;;;;6.55;3.95;;;;;;;0.61;100.00;97740.94;4209544;27;20039;-76
2022/12/08 04:19:14;;;;;;;7.40;4.18;;;;;;;0.63;100.00;97743.31;4208493;28;20045;-77
2022/12/08 04:21:14;;;;;;;7.38;4.10;;;;;;;0.63;100.00;97740.59;4208203;27;20132;-76
2022/12/08 04:23:15;;;;;;;8.70;4.65;;;;;;;0.63;100.00;97741.41;4208089;27;20055;-76
2022/12/08 04:25:15;;;;;;;7.32;4.05;;;;;;;0.59;100.00;97732.31;4210433;27;20055;-76
2022/12/08 04:27:15;;;;;;;6.25;4.00;;;;;;;0.59;100.00;97729.59;4210765;28;20368;-77
2022/12/08 04:29:16;;;;;;;9.07;4.07;;;;;;;0.61;100.00;97735.50;4218936;27;20138;-76
2022/12/08 04:31:16;;;;;;;6.45;3.90;;;;;;;0.60;100.00;97735.84;4218693;27;20032;-76
2022/12/08 04:33:17;;;;;;;6.32;3.83;;;;;;;0.59;100.00;97726.88;4207596;27;20071;-76
2022/12/08 04:35:17;;;;;;;6.22;4.10;;;;;;;0.54;100.00;97730.56;4220055;27;20048;-77
2022/12/08 04:37:17;;;;;;;7.38;4.13;;;;;;;0.52;100.00;97734.75;4217224;27;20040;-76
2022/12/08 04:39:18;;;;;;;9.93;4.25;;;;;;;0.45;100.00;97729.84;4211867;27;20077;-76
2022/12/08 04:41:18;;;;;;;7.45;4.35;;;;;;;0.52;100.00;97732.84;4219817;27;20158;-76
2022/12/08 04:43:18;;;;;;;7.57;4.32;;;;;;;0.54;100.00;97732.50;4215256;28;20355;-76
2022/12/08 04:45:19;;;;;;;7.32;4.60;;;;;;;0.51;100.00;97725.78;4219056;28;20105;-76
2022/12/08 04:47:21;;;;;;;7.57;4.22;;;;;;;0.51;100.00;97733.97;4215962;28;20027;-76
2022/12/08 04:49:21;;;;;;;8.32;5.20;;;;;;;0.52;100.00;97724.66;4217998;27;20521;-76
2022/12/08 04:51:21;;;;;;;7.78;4.85;;;;;;;0.50;100.00;97728.84;4216706;28;20040;-76
2022/12/08 04:53:22;;;;;;;8.10;4.05;;;;;;;0.48;100.00;97717.47;4216498;27;20035;-76
2022/12/08 04:55:22;;;;;;;7.40;4.55;;;;;;;0.47;100.00;97715.88;4217603;28;20291;-76
2022/12/08 04:57:23;;;;;;;6.10;4.55;;;;;;;0.47;100.00;97724.06;4216555;28;20115;-76
2022/12/08 04:59:23;;;;;;;8.95;4.97;;;;;;;0.45;100.00;97712.72;4217313;28;20108;-76
2022/12/08 05:01:23;;;;;;;8.05;5.55;;;;;;;0.42;100.00;97710.66;4207408;28;20052;-76
2022/12/08 05:03:24;;;;;;;7.72;4.47;;;;;;;0.41;100.00;97714.47;4216548;27;20356;-76
2022/12/08 05:05:24;;;;;;;8.23;4.63;;;;;;;0.43;100.00;97706.81;4218010;28;20044;-76
2022/12/08 05:07:24;;;;;;;6.90;4.22;;;;;;;0.43;100.00;97712.25;4217656;28;20122;-76
2022/12/08 05:09:25;;;;;;;8.98;5.68;;;;;;;0.43;100.00;97717.69;4217946;28;20040;-76
2022/12/08 05:11:25;;;;;;;8.32;5.85;;;;;;;0.43;100.00;97707.59;4217767;28;20127;-76
2022/12/08 05:13:25;;;;;;;9.68;6.00;;;;;;;0.49;100.00;97710.91;4215972;27;20107;-76
2022/12/08 05:15:26;;;;;;;10.30;6.13;;;;;;;0.49;100.00;97713.63;4219631;27;20074;-76
2022/12/08 05:17:26;;;;;;;8.85;5.47;;;;;;;0.49;100.00;97706.25;4212813;27;20035;-76
2022/12/08 05:19:26;;;;;;;7.07;4.80;;;;;;;0.46;100.00;97706.94;4217886;28;20059;-76
2022/12/08 05:21:27;;;;;;;7.22;4.95;;;;;;;0.48;100.00;97707.38;4216321;28;20130;-76
2022/12/08 05:23:27;;;;;;;8.52;5.20;;;;;;;0.54;100.00;97705.28;4216957;27;20039;-76
2022/12/08 05:25:28;;;;;;;10.02;6.45;;;;;;;0.55;100.00;97704.94;4207275;28;20529;-76
2022/12/08 05:27:28;;;;;;;8.35;5.55;;;;;;;0.59;100.00;97702.38;4217751;27;20374;-76
2022/12/08 05:29:28;;;;;;;8.25;5.38;;;;;;;0.67;100.00;97698.78;4218373;27;20055;-76
2022/12/08 05:31:29;;;;;;;9.10;5.03;;;;;;;0.68;100.00;97697.66;4216729;28;20194;-76
2022/12/08 05:33:29;;;;;;;8.90;5.75;;;;;;;0.67;100.00;97692.53;4207114;28;20818;-76
2022/12/08 05:35:30;;;;;;;8.93;5.60;;;;;;;0.72;100.00;97692.31;4214742;28;20609;-76
2022/12/08 05:37:30;;;;;;;9.70;5.63;;;;;;;0.75;100.00;97689.75;4218540;28;20479;-76
2022/12/08 05:39:30;;;;;;;9.07;6.00;;;;;;;0.76;100.00;97690.53;4207492;28;20036;-76
2022/12/08 05:41:31;;;;;;;8.23;5.28;;;;;;;0.76;100.00;97691.34;4215939;28;20039;-76
2022/12/08 05:43:31;;;;;;;8.98;5.15;;;;;;;0.77;100.00;97692.13;4216570;28;20063;-76
2022/12/08 05:45:32;;;;;;;10.80;5.65;;;;;;;0.79;100.00;97692.59;4208102;28;20127;-76
2022/12/08 05:47:32;;;;;;;10.32;5.50;;;;;;;0.85;100.00;97696.72;4215420;28;20844;-76
2022/12/08 05:49:33;;;;;;;8.00;5.30;;;;;;;0.83;100.00;97691.59;4215611;28;20078;-76
2022/12/08 05:51:33;;;;;;;12.70;7.38;;;;;;;0.83;100.00;97694.34;4216323;28;20074;-76
2022/12/08 05:53:33;;;;;;;8.80;6.05;;;;;;;0.82;100.00;97681.03;4212615;28;20118;-76
2022/12/08 05:55:34;;;;;;;10.60;6.93;;;;;;;0.82;100.00;97687.25;4180308;28;20154;-76
2022/12/08 05:57:34;;;;;;;7.40;5.00;;;;;;;0.83;100.00;97688.88;4168510;28;20836;-76
2022/12/08 05:59:36;;;;;;;8.43;5.25;;;;;;;0.82;100.00;97690.00;4217164;28;20308;-76
2022/12/08 06:01:36;;;;;;;9.35;5.80;;;;;;;0.83;100.00;97694.34;4217189;28;20043;-76
2022/12/08 06:03:37;;;;;;;9.45;5.20;;;;;;;0.87;100.00;97690.94;4214469;28;20046;-76
2022/12/08 06:05:37;;;;;;;7.97;5.28;;;;;;;0.87;100.00;97693.66;4206872;28;20311;-76
2022/12/08 06:07:37;;;;;;;7.95;5.45;;;;;;;0.90;100.00;97682.09;4215824;28;20040;-76
2022/12/08 06:09:38;;;;;;;9.65;5.40;;;;;;;0.90;100.00;97679.34;4216544;28;20401;-76
2022/12/08 06:11:38;;;;;;;12.52;6.03;;;;;;;0.93;100.00;97684.16;4214786;28;20535;-76
2022/12/08 06:13:38;;;;;;;9.80;5.53;;;;;;;0.94;100.00;97683.03;4215240;28;20067;-76
2022/12/08 06:15:40;;;;;;;14.02;6.88;;;;;;;1.04;100.00;97680.69;4218163;28;20055;-76
2022/12/08 06:17:40;;;;;;;8.23;5.60;;;;;;;1.04;100.00;97688.84;4216828;28;20042;-76
2022/12/08 06:19:41;;;;;;;8.70;5.30;;;;;;;1.07;100.00;97690.09;4217607;28;20044;-76
2022/12/08 06:21:41;;;;;;;8.93;5.47;;;;;;;1.09;100.00;97685.13;4214891;28;20043;-76
2022/12/08 06:23:42;;;;;;;8.93;5.20;;;;;;;1.08;100.00;97683.53;4214217;28;20477;-76
2022/12/08 06:25:42;;;;;;;11.00;5.65;;;;;;;1.09;100.00;97679.69;4218016;28;20334;-76
2022/12/08 06:27:43;;;;;;;10.48;6.15;;;;;;;1.09;100.00;97685.94;4216333;28;20383;-76
2022/12/08 06:29:43;;;;;;;9.40;6.28;;;;;;;1.08;100.00;97678.09;4216172;28;20182;-76
2022/12/08 06:31:43;;;;;;;10.73;6.97;;;;;;;1.04;100.00;97675.22;4215657;28;20056;-75
2022/12/08 06:33:44;;;;;;;10.13;6.07;;;;;;;1.03;100.00;97672.84;4216769;28;20040;-76
2022/12/08 06:35:45;;;;;;;11.40;6.53;;;;;;;0.97;100.00;97677.69;4213862;28;20629;-75
2022/12/08 06:37:45;;;;;;;10.48;6.13;;;;;;;0.94;100.00;97672.13;4214790;27;20119;-75
2022/12/08 06:39:45;;;;;;;12.18;6.47;;;;;;;0.93;100.00;97684.94;4218424;28;20114;-76
2022/12/08 06:44:04;;;;;;;16.63;7.03;;;;;;;0.94;100.00;97681.09;4216679;28;20046;-76
2022/12/08 06:46:07;;;;;;;9.98;6.45;;;;;;;0.96;100.00;97676.09;4217505;28;20479;-75
2022/12/08 06:48:07;;;;;;;10.23;6.40;;;;;;;0.96;100.00;97675.31;4209454;28;20110;-75
2022/12/08 06:50:09;;;;;;;12.25;6.18;;;;;;;0.95;100.00;97677.22;4217411;27;20028;-75
2022/12/08 06:52:10;;;;;;;9.43;5.72;;;;;;;0.99;100.00;97682.78;4220963;28;20069;-75
2022/12/08 06:54:10;;;;;;;11.05;5.68;;;;;;;1.00;100.00;97668.88;4219957;28;20326;-76
2022/12/08 06:56:11;;;;;;;8.75;5.40;;;;;;;1.01;100.00;97675.91;4221569;27;20187;-75
2022/12/08 06:58:13;;;;;;;9.25;5.88;;;;;;;1.01;100.00;97675.09;4219968;27;20032;-76
2022/12/08 07:00:14;;;;;;;10.90;6.25;;;;;;;1.01;100.00;97672.38;4220299;27;20034;-75
2022/12/08 07:02:14;;;;;;;10.02;5.00;;;;;;;0.99;100.00;97677.34;4210645;27;20456;-76
2022/12/08 07:04:15;;;;;;;8.35;5.18;;;;;;;1.08;100.00;97691.72;4213483;27;20032;-75
2022/12/08 07:06:19;;;;;;;9.13;5.72;;;;;;;1.05;100.00;97685.00;4220592;27;20114;-75
2022/12/08 07:08:20;;;;;;;11.50;6.55;;;;;;;1.04;100.00;97683.41;4214491;27;20034;-75
2022/12/08 07:10:20;;;;;;;9.43;6.15;;;;;;;1.06;100.00;97683.06;4219496;27;20466;-76
2022/12/08 07:12:20;;;;;;;14.02;6.70;;;;;;;1.02;100.00;97680.22;4219925;27;20053;-76
2022/12/08 07:14:23;;;;;;;9.63;5.47;;;;;;;1.02;100.00;97676.69;4209901;28;21311;-75
2022/12/08 07:16:23;;;;;;;8.15;5.22;;;;;;;1.03;100.00;97686.47;4219377;27;20039;-75
2022/12/08 07:18:24;;;;;;;13.05;5.95;;;;;;;1.04;100.00;97675.22;4219860;27;20464;-75
2022/12/08 07:20:24;;;;;;;10.25;6.13;;;;;;;1.02;100.00;97680.22;4217563;27;20115;-75
2022/12/08 07:22:24;;;;;;;10.35;6.05;;;;;;;0.97;100.00;97672.25;4221193;27;20059;-75
2022/12/08 07:24:25;;;;;;;11.23;6.05;;;;;;;0.96;100.00;97672.59;4222088;27;20409;-75
2022/12/08 07:26:26;;;;;;;9.85;5.63;;;;;;;0.98;100.00;97675.75;4220006;27;20055;-75
2022/12/08 07:28:26;;;;;;;8.10;4.95;;;;;;;1.00;100.00;97679.75;4220792;28;20224;-75
2022/12/08 07:30:26;;;;;;;8.95;5.28;;;;;;;1.04;100.00;97677.16;4219820;28;20071;-76
2022/12/08 07:32:26;;;;;;;12.00;5.72;;;;;;;1.05;100.00;97681.47;4220982;28;20134;-75
2022/12/08 07:34:27;;;;;;;8.57;4.75;;;;;;;1.06;100.00;97672.94;4220521;28;20459;-75
2022/12/08 07:36:27;;;;;;;8.18;4.90;;;;;;;1.04;100.00;97677.94;4221040;27;20173;-75
2022/12/08 07:38:28;;;;;;;9.43;5.20;;;;;;;1.05;100.00;97676.81;4221450;27;20200;-76
2022/12/08 07:40:28;;;;;;;6.82;4.72;;;;;;;1.12;100.00;97679.00;4220113;27;20061;-75
2022/12/08 07:42:28;;;;;;;8.85;5.13;;;;;;;1.10;100.00;97682.06;4218108;28;20441;-76
2022/12/08 07:44:29;;;;;;;8.75;5.55;;;;;;;1.10;100.00;97686.72;4219745;28;20043;-75
2022/12/08 07:46:29;;;;;;;7.13;4.28;;;;;;;1.10;100.00;97678.53;4221262;27;20126;-75
2022/12/08 07:48:29;;;;;;;9.73;5.63;;;;;;;1.10;100.00;97684.78;4219934;27;20471;-76
2022/12/08 07:50:30;;;;;;;10.52;4.93;;;;;;;1.15;100.00;97685.69;4219493;27;20420;-76
2022/12/08 07:52:30;;;;;;;7.60;4.72;;;;;;;1.16;100.00;97685.38;4211276;28;20083;-75
2022/12/08 07:54:30;;;;;;;10.82;5.18;;;;;;;1.16;100.00;97688.13;4221130;27;20074;-75
2022/12/08 07:56:31;;;;;;;8.75;5.50;;;;;;;1.12;100.00;97679.78;4217166;27;20131;-76
2022/12/08 07:58:31;;;;;;;7.85;5.07;;;;;;;1.13;100.00;97683.31;4221027;27;20451;-75
2022/12/08 08:00:31;;;;;;;11.07;5.20;;;;;;;1.10;100.00;97682.06;4220408;27;20126;-75
2022/12/08 08:02:32;;;;;;;8.93;4.88;;;;;;;1.15;100.00;97689.22;4219277;28;20407;-75
2022/12/08 08:04:32;;;;;;;10.30;4.85;;;;;;;1.20;100.00;97680.84;4219359;28;20464;-75
2022/12/08 08:06:35;;;;;;;6.93;4.03;;;;;;;1.21;100.00;97679.72;4220651;28;20532;-76
2022/12/08 08:08:35;;;;;;;;;;;;;;;1.25;100.00;97674.41;4220837;27;20166;-75
2022/12/08 08:10:35;;;;;;;8.40;4.88;;;;;;;1.28;100.00;97673.72;4220900;27;19907;-76
2022/12/08 08:12:37;;;;;;;6.50;4.18;;;;;;;1.30;100.00;97682.34;4220154;28;20430;-75
2022/12/08 08:14:37;;;;;;;6.43;4.05;;;;;;;1.34;100.00;97680.56;4220698;28;20053;-75
2022/12/08 08:16:37;;;;;;;7.10;4.05;;;;;;;1.36;100.00;97681.00;4220755;27;20067;-75
2022/12/08 08:18:38;;;;;;;6.88;4.03;;;;;;;1.34;100.00;97680.56;4219210;28;20112;-76
2022/12/08 08:20:39;;;;;;;8.60;4.82;;;;;;;1.34;100.00;97672.38;4220609;28;20106;-78
2022/12/08 08:22:40;;;;;;;6.97;3.95;;;;;;;1.34;100.00;97684.06;4211757;28;20443;-75
2022/12/08 08:24:40;;;;;;;8.27;5.60;;;;;;;1.31;100.00;97682.00;4220620;27;20040;-76
2022/12/08 08:26:40;;;;;;;9.32;5.78;;;;;;;1.31;100.00;97681.22;4218305;28;20443;-76
2022/12/08 08:28:42;;;;;;;7.35;5.10;;;;;;;1.27;100.00;97675.66;4218757;28;20841;-76
2022/12/08 08:30:45;;;;;;;8.77;4.82;;;;;;;1.23;100.00;97679.38;4211824;28;20503;-76
2022/12/08 08:32:46;;;;;;;7.32;4.63;;;;;;;1.23;100.00;97671.97;4219886;27;20059;-76
2022/12/08 08:34:47;;;;;;;8.20;4.70;;;;;;;1.25;100.00;97685.31;4219396;27;20054;-76
2022/12/08 08:36:47;;;;;;;7.03;4.10;;;;;;;1.27;100.00;97683.81;4220200;27;20059;-76
2022/12/08 08:38:47;;;;;;;7.00;4.65;;;;;;;1.25;100.00;97672.47;4218474;27;20488;-76
2022/12/08 08:40:47;;;;;;;8.20;4.57;;;;;;;1.29;100.00;97680.75;4219999;28;20638;-76
2022/12/08 08:42:48;;;;;;;7.00;4.72;;;;;;;1.28;100.00;97679.16;4218383;27;20427;-76
2022/12/08 08:44:48;;;;;;;6.43;4.65;;;;;;;1.31;100.00;97681.22;4218034;27;20426;-76
2022/12/08 08:46:48;;;;;;;7.25;4.25;;;;;;;1.37;100.00;97674.41;4219899;28;20051;-76
2022/12/08 08:48:49;;;;;;;6.45;4.13;;;;;;;1.36;100.00;97681.00;4218368;28;20467;-76
2022/12/08 08:50:49;;;;;;;7.55;4.53;;;;;;;1.35;100.00;97674.75;4220078;27;20370;-76
2022/12/08 08:52:49;;;;;;;6.45;4.20;;;;;;;1.34;100.00;97675.91;4205680;27;20078;-76
2022/12/08 08:54:50;;;;;;;8.57;4.78;;;;;;;1.36;100.00;97681.00;4220549;27;20047;-76
2022/12/08 08:56:51;;;;;;;9.40;5.43;;;;;;;1.36;100.00;97678.28;4219718;28;20047;-76
2022/12/08 08:58:52;;;;;;;10.65;5.13;;;;;;;1.37;100.00;97671.69;4220451;27;20297;-76
2022/12/08 09:00:52;;;;;;;8.27;4.88;;;;;;;1.39;100.00;97677.59;4220445;27;20126;-76
2022/12/08 09:02:53;;;;;;;7.95;4.80;;;;;;;1.40;100.00;97682.69;4217618;28;20609;-76
2022/12/08 09:04:53;;;;;;;4.93;3.40;;;;;;;1.48;100.00;97672.84;4218731;28;20071;-78
2022/12/08 09:06:53;;;;;;;6.50;4.20;;;;;;;1.50;100.00;97684.22;4218890;28;20079;-78
2022/12/08 09:08:54;;;;;;;6.70;4.10;;;;;;;1.49;100.00;97682.63;4219960;27;20071;-77
2022/12/08 09:10:54;;;;;;;6.05;3.75;;;;;;;1.50;100.00;97677.97;4217069;28;20360;-77
2022/12/08 09:12:54;;;;;;;6.28;3.97;;;;;;;1.53;100.00;97682.75;4218523;28;20469;-77
2022/12/08 09:14:54;;;;;;;5.55;4.18;;;;;;;1.52;100.00;97681.94;4218730;27;20082;-77
2022/12/08 09:16:55;;;;;;;7.43;4.82;;;;;;;1.52;100.00;97675.72;4209012;28;20039;-77
2022/12/08 09:18:55;;;;;;;6.93;4.50;;;;;;;1.58;100.00;97672.44;4217564;27;20059;-77
2022/12/08 09:20:56;;;;;;;9.38;5.22;;;;;;;1.61;100.00;97679.13;4219218;27;20066;-77
2022/12/08 09:22:56;;;;;;;9.43;5.80;;;;;;;1.61;100.00;97676.41;4211698;27;20051;-77
2022/12/08 09:24:57;;;;;;;7.47;4.75;;;;;;;1.60;100.00;97672.09;4214405;27;20063;-76
2022/12/08 09:26:57;;;;;;;7.05;4.50;;;;;;;1.63;100.00;97676.84;4209868;28;20059;-77
2022/12/08 09:28:57;;;;;;;7.18;4.43;;;;;;;1.62;100.00;97670.59;4210441;28;20322;-77
2022/12/08 09:30:58;;;;;;;9.10;5.45;;;;;;;1.68;100.00;97673.91;4216342;28;20135;-77
2022/12/08 09:32:58;;;;;;;8.05;4.63;;;;;;;1.67;100.00;97670.41;4215888;28;20047;-77
2022/12/08 09:34:59;;;;;;;25.17;9.98;;;;;;;1.71;100.00;97680.59;4215510;27;20031;-77
2022/12/08 09:36:59;;;;;;;16.75;9.05;;;;;;;1.72;100.00;97680.25;4218174;28;20045;-77
2022/12/08 09:38:59;;;;;;;11.98;6.30;;;;;;;1.71;100.00;97680.59;4220087;28;20178;-77
2022/12/08 09:41:03;;;;;;;6.60;4.68;;;;;;;1.74;100.00;97680.75;4217678;28;20509;-77